Time;durP1;ratioP1;P1;durP2;ratioP2;P2;SDS_P1;SDS_P2;PMS_P1;PMS_P2;Temp;Humidity;BMP_temperature;BMP_pressure;BME280_temperature;BME280_humidity;BME280_pressure;Samples;Min_cycle;Max_cycle;Signal;HPM_P1;HPM_P2
2023/07/09 00:01:59;;;;;;;;;17.75;16.75;;;;;29.55;46.47;101201.13;5039056;28;45450;-64
2023/07/09 00:04:24;;;;;;;;;16.75;15.75;;;;;29.51;46.48;101194.22;5040011;28;46051;-65
2023/07/09 00:06:50;;;;;;;;;14.50;14.50;;;;;29.51;46.84;101206.84;5022086;28;45384;-64
2023/07/09 00:09:19;;;;;;;;;14.00;12.50;;;;;29.49;46.75;101211.50;5040103;28;45502;-63
2023/07/09 00:11:45;;;;;;;;;11.75;11.75;;;;;29.46;47.31;101209.88;5038388;28;45578;-63
2023/07/09 00:14:15;;;;;;;;;11.00;11.00;;;;;29.44;46.83;101200.16;5038618;28;46264;-63
2023/07/09 00:16:43;;;;;;;;;12.75;11.00;;;;;29.44;47.04;101211.81;5039002;28;45264;-64
2023/07/09 00:19:18;;;;;;;;;13.00;12.00;;;;;29.39;47.24;101211.28;5038569;28;45369;-63
2023/07/09 00:21:45;;;;;;;;;13.50;11.00;;;;;29.25;47.41;101193.34;5038194;28;45921;-64
2023/07/09 00:24:12;;;;;;;;;15.25;12.00;;;;;29.36;47.41;101225.00;5038320;28;46134;-64
2023/07/09 00:26:40;;;;;;;;;11.00;11.00;;;;;29.32;47.78;101220.78;5020150;28;45325;-65
2023/07/09 00:29:09;;;;;;;;;11.25;11.25;;;;;29.21;47.53;101213.44;5038932;28;45209;-65
2023/07/09 00:31:38;;;;;;;;;14.00;14.00;;;;;29.27;47.59;101225.63;5038938;28;45375;-63
2023/07/09 00:34:04;;;;;;;;;14.75;14.25;;;;;29.22;47.85;101225.94;5038147;28;46285;-64
2023/07/09 00:36:34;;;;;;;;;16.25;15.00;;;;;29.22;47.84;101214.28;5020030;28;45598;-64
2023/07/09 00:39:04;;;;;;;;;14.50;12.25;;;;;29.21;48.24;101216.13;5038508;28;45760;-61
2023/07/09 00:41:33;;;;;;;;;12.50;12.00;;;;;29.21;47.84;101218.84;5038346;28;45570;-64
2023/07/09 00:44:33;;;;;;;;;12.75;12.25;;;;;29.20;48.07;101221.63;5037974;28;45344;-63
2023/07/09 00:47:00;;;;;;;;;14.50;14.50;;;;;29.18;48.28;101229.81;5037061;28;45429;-64
2023/07/09 00:49:36;;;;;;;;;12.75;11.00;;;;;29.15;47.85;101233.59;5037909;28;45386;-64
2023/07/09 00:52:17;;;;;;;;;13.25;13.00;;;;;29.11;48.35;101231.19;5038534;28;45247;-63
2023/07/09 00:54:46;;;;;;;;;10.25;10.25;;;;;29.03;48.59;101228.13;5038403;28;45338;-65
2023/07/09 00:57:19;;;;;;;;;12.00;10.25;;;;;29.01;48.55;101238.16;5037259;28;45456;-64
2023/07/09 00:59:48;;;;;;;;;11.00;11.00;;;;;28.96;48.50;101239.31;5037801;28;45281;-65
2023/07/09 01:02:14;;;;;;;;;13.00;12.50;;;;;29.01;48.57;101244.41;5037795;28;45529;-65
2023/07/09 01:04:41;;;;;;;;;12.25;12.25;;;;;29.01;48.39;101244.41;5037781;28;46469;-65
2023/07/09 01:07:07;;;;;;;;;13.25;11.75;;;;;29.02;48.45;101245.28;5037443;28;45519;-65
2023/07/09 01:09:35;;;;;;;;;12.00;11.00;;;;;29.00;48.58;101248.09;5037695;28;45470;-65
2023/07/09 01:12:07;;;;;;;;;14.25;13.00;;;;;28.98;48.88;101244.63;5037613;28;45450;-64
2023/07/09 01:14:35;;;;;;;;;12.75;12.75;;;;;28.93;48.68;101247.63;5019435;28;45721;-64
2023/07/09 01:17:07;;;;;;;;;12.00;12.00;;;;;28.95;48.38;101255.63;5037389;28;45466;-64
2023/07/09 01:19:44;;;;;;;;;15.00;13.75;;;;;28.94;49.16;101262.84;5037757;28;45360;-63
2023/07/09 01:22:12;;;;;;;;;13.00;10.75;;;;;28.90;49.27;101253.25;5019340;28;45222;-63
2023/07/09 01:24:47;;;;;;;;;11.75;11.75;;;;;28.90;48.98;101253.25;5037160;28;46084;-64
2023/07/09 01:27:13;;;;;;;;;11.25;11.25;;;;;28.87;49.08;101252.56;5037039;28;45330;-64
2023/07/09 01:29:41;;;;;;;;;12.75;11.25;;;;;28.81;49.64;101236.78;5037349;28;45312;-64
2023/07/09 01:32:07;;;;;;;;;11.75;11.75;;;;;28.84;49.23;101255.47;5038279;28;45394;-64
2023/07/09 01:34:33;;;;;;;;;12.25;11.25;;;;;28.76;49.63;101247.91;5037506;28;46106;-64
2023/07/09 01:36:59;;;;;;;;;12.00;12.00;;;;;28.82;49.05;101260.09;5036729;28;45439;-63
2023/07/09 01:39:28;;;;;;;;;17.75;16.00;;;;;28.82;49.34;101266.34;5037418;28;45336;-64
2023/07/09 01:41:58;;;;;;;;;17.00;14.25;;;;;28.71;49.31;101255.41;5037448;28;45452;-64
2023/07/09 01:44:23;;;;;;;;;13.75;13.25;;;;;28.69;49.74;101251.97;5018897;28;46594;-63
2023/07/09 01:46:49;;;;;;;;;16.50;14.75;;;;;28.75;49.62;101273.97;5036983;28;45706;-65
2023/07/09 01:49:16;;;;;;;;;12.50;12.00;;;;;28.67;49.85;101257.47;5037048;28;45686;-64
2023/07/09 01:51:42;;;;;;;;;13.25;13.25;;;;;28.70;50.05;101268.03;5037383;28;45369;-64
2023/07/09 01:54:07;;;;;;;;;15.75;11.75;;;;;28.64;49.71;101265.75;5037503;28;45328;-65
2023/07/09 01:56:34;;;;;;;;;12.50;11.25;;;;;28.60;49.91;101271.44;5036814;28;45423;-64
2023/07/09 01:59:00;;;;;;;;;11.00;11.00;;;;;28.69;49.88;101289.72;5037261;28;45444;-63
2023/07/09 02:01:28;;;;;;;;;13.75;12.25;;;;;28.58;50.25;101271.53;5038374;28;45277;-64
2023/07/09 02:03:53;;;;;;;;;10.25;10.25;;;;;28.66;49.68;101281.81;5038068;28;46054;-63
2023/07/09 02:06:19;;;;;;;;;12.00;10.75;;;;;28.63;49.93;101290.97;5036749;28;45380;-64
2023/07/09 02:08:45;;;;;;;;;14.25;13.00;;;;;28.58;50.39;101284.16;5037061;28;45391;-64
2023/07/09 02:11:11;;;;;;;;;14.50;13.25;;;;;28.59;49.82;101283.16;5037908;28;45252;-64
2023/07/09 02:13:36;;;;;;;;;12.00;12.00;;;;;28.55;50.03;101269.06;5036656;28;46105;-64
2023/07/09 02:16:02;;;;;;;;;14.75;13.25;;;;;28.52;50.40;101266.53;5036725;28;45315;-63
2023/07/09 02:18:29;;;;;;;;;10.25;10.25;;;;;28.48;50.02;101267.72;5036794;28;45293;-64
2023/07/09 02:20:54;;;;;;;;;13.50;12.25;;;;;28.60;50.35;101282.22;5036795;28;45462;-64
2023/07/09 02:23:25;;;;;;;;;12.50;10.25;;;;;28.50;50.28;101273.88;5036430;28;45989;-65
2023/07/09 02:25:51;;;;;;;;;12.00;12.00;;;;;28.47;50.79;101279.44;5039077;28;45466;-63
2023/07/09 02:28:16;;;;;;;;;13.25;12.75;;;;;28.21;51.44;101271.16;5040179;28;45442;-64
2023/07/09 02:30:42;;;;;;;;;18.67;17.67;;;;;28.15;51.32;101260.81;5040546;28;45274;-64
2023/07/09 02:33:07;;;;;;;;;23.33;20.67;;;;;28.24;51.14;101273.69;5039612;28;45403;-64
2023/07/09 02:35:34;;;;;;;;;23.33;21.67;;;;;28.27;51.02;101280.69;5022044;28;45334;-64
2023/07/09 02:37:59;;;;;;;;;16.25;15.00;;;;;28.29;50.47;101281.47;5040280;28;45514;-65
2023/07/09 02:40:25;;;;;;;;;13.00;12.25;;;;;28.30;50.49;101285.88;5040199;28;45500;-64
2023/07/09 02:42:50;;;;;;;;;14.25;12.00;;;;;28.32;50.48;101286.66;5039757;28;45513;-64
2023/07/09 02:45:16;;;;;;;;;11.75;11.50;;;;;28.22;50.40;101266.66;5039688;28;45840;-64
2023/07/09 02:47:41;;;;;;;;;12.25;11.00;;;;;28.29;50.54;101274.25;5039733;28;45431;-63
2023/07/09 02:50:07;;;;;;;;;11.25;11.25;;;;;28.28;50.56;101272.50;5040358;28;45324;-64
2023/07/09 02:52:33;;;;;;;;;10.75;10.25;;;;;28.32;50.48;101290.22;5040543;28;45526;-65
2023/07/09 02:54:58;;;;;;;;;12.00;10.50;;;;;28.32;50.29;101295.59;5039744;28;45481;-64
2023/07/09 02:57:24;;;;;;;;;14.25;13.00;;;;;28.27;50.59;101286.94;5039569;28;45514;-64
2023/07/09 02:59:49;;;;;;;;;12.75;12.50;;;;;28.15;50.77;101268.88;5039567;28;45240;-63
2023/07/09 03:02:15;;;;;;;;;11.25;11.25;;;;;28.12;50.92;101266.41;5039144;28;45406;-63
2023/07/09 03:04:40;;;;;;;;;13.00;11.00;;;;;28.16;50.57;101275.97;5039140;28;45481;-63
2023/07/09 03:07:07;;;;;;;;;14.25;11.75;;;;;28.17;51.24;101282.25;5039735;28;45415;-63
2023/07/09 03:09:32;;;;;;;;;15.75;12.75;;;;;28.17;51.22;101285.81;5039877;28;45509;-64
2023/07/09 03:11:58;;;;;;;;;16.00;14.00;;;;;28.11;51.09;101276.28;5039178;28;45479;-63
2023/07/09 03:14:23;;;;;;;;;10.75;10.50;;;;;28.13;50.91;101295.91;5039320;28;45384;-63
2023/07/09 03:16:49;;;;;;;;;6.00;6.00;;;;;28.10;51.09;101293.41;5039307;28;45301;-63
2023/07/09 03:19:15;;;;;;;;;15.00;13.50;;;;;28.10;51.43;101298.78;5039311;28;45444;-63
2023/07/09 03:21:40;;;;;;;;;14.00;11.50;;;;;28.05;51.52;101303.59;5038968;28;46337;-63
2023/07/09 03:24:06;;;;;;;;;16.25;11.75;;;;;28.03;51.74;101308.22;5038987;28;45418;-64
2023/07/09 03:26:32;;;;;;;;;12.75;12.75;;;;;27.99;51.85;101313.88;5039705;28;45411;-63
2023/07/09 03:28:57;;;;;;;;;13.50;12.50;;;;;28.00;51.88;101318.28;5040184;28;45365;-64
2023/07/09 03:31:23;;;;;;;;;11.50;11.50;;;;;27.98;52.28;101313.03;5034982;28;46570;-64
2023/07/09 03:33:50;;;;;;;;;14.50;12.00;;;;;27.95;51.72;101317.72;5026064;28;45344;-62
2023/07/09 03:36:16;;;;;;;;;13.00;12.25;;;;;27.88;51.80;101307.34;5024948;28;45531;-64
2023/07/09 03:38:42;;;;;;;;;12.75;10.75;;;;;27.92;52.00;101308.88;5019864;28;45543;-64
2023/07/09 03:41:08;;;;;;;;;13.50;9.50;;;;;27.91;51.73;101306.28;5019292;28;45950;-63
2023/07/09 03:43:33;;;;;;;;;11.75;9.75;;;;;27.83;51.65;101301.34;5019495;28;45498;-63
2023/07/09 03:45:59;;;;;;;;;9.50;9.50;;;;;27.87;51.75;101310.97;5018776;28;45734;-64
2023/07/09 03:48:24;;;;;;;;;13.50;11.50;;;;;27.85;52.03;101307.53;5018641;28;45400;-64
2023/07/09 03:50:50;;;;;;;;;12.25;12.25;;;;;27.80;51.80;101306.91;5003996;28;46740;-63
2023/07/09 03:53:16;;;;;;;;;13.25;12.00;;;;;27.76;51.95;101296.41;5038354;28;45660;-64
2023/07/09 03:55:42;;;;;;;;;9.00;9.00;;;;;27.80;51.98;101312.28;5038997;28;45263;-64
2023/07/09 03:58:09;;;;;;;;;10.50;10.50;;;;;27.77;51.97;101309.78;5038743;28;45416;-65
2023/07/09 04:00:41;;;;;;;;;13.25;11.00;;;;;27.69;52.15;101295.91;5038628;28;45339;-64
2023/07/09 04:03:11;;;;;;;;;11.00;9.75;;;;;27.58;52.03;101279.59;5020581;28;45516;-64
2023/07/09 04:05:37;;;;;;;;;9.75;9.25;;;;;27.81;51.66;101314.03;5038176;28;45559;-64
2023/07/09 04:08:03;;;;;;;;;12.75;10.50;;;;;27.80;51.82;101309.59;5039009;28;45485;-63
2023/07/09 04:10:29;;;;;;;;;10.50;10.00;;;;;27.80;51.79;101312.28;5038899;28;45612;-64
2023/07/09 04:12:54;;;;;;;;;14.25;12.50;;;;;27.79;51.73;101313.25;5037866;28;45347;-64
2023/07/09 04:15:20;;;;;;;;;11.00;8.75;;;;;27.69;51.70;101301.31;5038354;28;45538;-64
2023/07/09 04:17:45;;;;;;;;;12.25;12.25;;;;;27.79;51.71;101307.03;5013695;28;45412;-64
2023/07/09 04:20:12;;;;;;;;;11.00;11.00;;;;;27.75;51.53;101317.09;5016562;28;47502;-64
2023/07/09 04:22:38;;;;;;;;;11.50;11.50;;;;;27.78;51.51;101316.91;5038642;28;45656;-62
2023/07/09 04:25:06;;;;;;;;;13.00;10.00;;;;;27.80;51.51;101319.50;5038752;28;45399;-63
2023/07/09 04:27:33;;;;;;;;;10.75;9.25;;;;;27.80;51.25;101323.06;5037937;28;45498;-64
2023/07/09 04:29:59;;;;;;;;;11.00;10.00;;;;;27.83;51.33;101317.50;5037348;28;46263;-64
2023/07/09 04:32:25;;;;;;;;;11.50;10.25;;;;;27.83;51.42;101327.41;5037753;28;45493;-63
2023/07/09 04:34:50;;;;;;;;;10.50;9.25;;;;;27.86;51.19;101319.19;5038358;28;45609;-64
2023/07/09 04:37:16;;;;;;;;;12.50;11.25;;;;;27.88;50.74;101323.50;5037828;28;45882;-64
2023/07/09 04:39:42;;;;;;;;;11.25;11.25;;;;;27.79;50.90;101304.31;5037579;28;45526;-64
2023/07/09 04:42:14;;;;;;;;;13.25;10.50;;;;;27.91;50.46;101320.63;5037778;28;45588;-66
2023/07/09 04:44:40;;;;;;;;;13.75;12.00;;;;;27.85;50.49;101309.34;5037402;28;45439;-64
2023/07/09 04:47:07;;;;;;;;;12.00;10.50;;;;;27.89;50.59;101317.16;5037763;28;45495;-64
2023/07/09 04:49:32;;;;;;;;;12.75;11.50;;;;;27.80;50.28;101301.53;5016790;28;47060;-65
2023/07/09 04:51:59;;;;;;;;;11.75;11.25;;;;;27.91;50.30;101308.97;5031591;28;45456;-63
2023/07/09 04:54:25;;;;;;;;;12.00;10.25;;;;;27.94;49.95;101298.00;5038223;28;45438;-64
2023/07/09 04:56:50;;;;;;;;;15.00;11.75;;;;;28.00;49.88;101304.84;5037171;28;45375;-64
2023/07/09 04:59:16;;;;;;;;;11.25;8.75;;;;;27.99;49.59;101303.97;5036948;28;46210;-64
2023/07/09 05:01:41;;;;;;;;;10.50;10.50;;;;;27.96;49.43;101297.94;5037085;28;45467;-64
2023/07/09 05:04:07;;;;;;;;;7.75;7.75;;;;;27.99;49.46;101297.72;5037772;28;45399;-65
2023/07/09 05:06:35;;;;;;;;;13.00;10.25;;;;;28.02;49.29;101297.53;5037713;28;45418;-64
2023/07/09 05:09:00;;;;;;;;;10.50;8.25;;;;;28.05;49.22;101308.13;5037348;28;45554;-64
2023/07/09 05:11:26;;;;;;;;;10.25;9.50;;;;;28.07;49.05;101307.06;5038152;28;45418;-64
2023/07/09 05:13:51;;;;;;;;;13.25;11.00;;;;;28.05;48.90;101303.59;5037004;28;45418;-65
2023/07/09 05:16:17;;;;;;;;;11.75;10.00;;;;;28.10;49.15;101309.56;5037061;28;45316;-64
2023/07/09 05:18:45;;;;;;;;;10.00;10.00;;;;;28.15;49.05;101303.03;5037154;28;45938;-64
2023/07/09 05:21:11;;;;;;;;;10.75;9.50;;;;;28.18;48.64;101301.00;5035173;28;45306;-63
2023/07/09 05:23:36;;;;;;;;;7.75;7.75;;;;;28.14;48.49;101302.13;5037359;28;45391;-63
2023/07/09 05:26:02;;;;;;;;;10.25;10.25;;;;;27.99;49.03;101295.03;5037253;28;45154;-65
2023/07/09 05:28:29;;;;;;;;;9.00;8.50;;;;;28.08;48.31;101295.31;5035785;28;45621;-64
2023/07/09 05:30:55;;;;;;;;;9.75;9.50;;;;;28.10;48.13;101306.00;5036963;28;45423;-64
2023/07/09 05:33:21;;;;;;;;;9.75;9.75;;;;;28.07;48.39;101314.25;5019365;28;45521;-64
2023/07/09 05:35:47;;;;;;;;;11.75;10.00;;;;;28.06;47.64;101317.94;5037318;28;45423;-64
2023/07/09 05:38:14;;;;;;;;;9.50;9.00;;;;;28.04;47.84;101315.31;5037182;28;46206;-64
2023/07/09 05:40:41;;;;;;;;;13.50;9.25;;;;;28.06;47.52;101309.84;5038401;28;45533;-64
2023/07/09 05:43:06;;;;;;;;;10.50;8.75;;;;;28.06;47.59;101316.09;5036984;28;45582;-63
2023/07/09 05:45:32;;;;;;;;;9.75;8.00;;;;;28.05;47.53;101310.81;5037175;28;45359;-63
2023/07/09 05:48:01;;;;;;;;;11.00;8.50;;;;;28.10;47.67;101311.41;5036929;28;46192;-63
2023/07/09 05:50:28;;;;;;;;;8.75;8.75;;;;;28.17;47.10;101310.06;5018688;28;45437;-63
2023/07/09 05:52:54;;;;;;;;;12.25;9.25;;;;;28.25;46.86;101302.34;5019064;28;45433;-63
2023/07/09 05:55:20;;;;;;;;;10.75;10.00;;;;;28.20;46.96;101292.84;5019288;28;45463;-64
2023/07/09 05:57:45;;;;;;;;;15.50;10.00;;;;;28.17;46.81;101285.81;5036604;28;45851;-63
2023/07/09 06:00:12;;;;;;;;;11.50;10.00;;;;;28.13;47.58;101295.91;5036900;28;45444;-64
2023/07/09 06:02:38;;;;;;;;;9.50;8.75;;;;;28.12;46.80;101288.78;5038259;28;45343;-64
2023/07/09 06:05:05;;;;;;;;;10.25;10.25;;;;;28.21;47.05;101297.25;5037321;28;45487;-63
2023/07/09 06:07:30;;;;;;;;;10.75;10.00;;;;;28.32;46.91;101297.44;5018370;28;45388;-63
2023/07/09 06:09:57;;;;;;;;;11.50;10.00;;;;;28.45;46.81;101297.50;5018284;28;45397;-65
2023/07/09 06:12:23;;;;;;;;;11.75;9.75;;;;;28.52;46.01;101310.53;5036722;28;45530;-64
2023/07/09 06:14:48;;;;;;;;;9.75;8.25;;;;;28.59;45.83;101308.28;5036819;28;45423;-63
2023/07/09 06:17:18;;;;;;;;;11.50;10.00;;;;;28.62;45.71;101304.56;5018684;28;46467;-63
2023/07/09 06:19:43;;;;;;;;;10.00;8.50;;;;;28.64;45.64;101305.28;5018537;28;45534;-63
2023/07/09 06:22:09;;;;;;;;;8.25;8.25;;;;;28.55;45.74;101298.69;5019692;28;45496;-64
2023/07/09 06:24:35;;;;;;;;;8.00;8.00;;;;;28.62;45.78;101329.66;5036625;28;45897;-64
2023/07/09 06:27:01;;;;;;;;;10.00;9.00;;;;;28.51;45.87;101306.09;5035811;28;45606;-64
2023/07/09 06:29:27;;;;;;;;;12.00;9.00;;;;;28.45;45.23;101297.50;5036086;28;45415;-63
2023/07/09 06:31:53;;;;;;;;;7.75;7.75;;;;;28.33;45.09;101280.28;5035939;28;45396;-64
2023/07/09 06:34:18;;;;;;;;;7.25;7.25;;;;;28.70;45.34;101342.63;5036432;28;45309;-64
2023/07/09 06:36:44;;;;;;;;;9.25;9.25;;;;;28.63;44.79;101336.78;5018012;28;47899;-64
2023/07/09 06:39:09;;;;;;;;;10.25;8.50;;;;;28.70;45.02;101346.19;5036898;28;45443;-64
2023/07/09 06:41:41;;;;;;;;;7.00;7.00;;;;;28.74;45.21;101350.44;5036076;28;45508;-64
2023/07/09 06:44:10;;;;;;;;;9.75;9.00;;;;;28.75;44.63;101352.16;5036210;28;45532;-64
2023/07/09 06:46:36;;;;;;;;;8.75;7.75;;;;;28.73;44.58;101345.13;5035708;28;45583;-63
2023/07/09 06:49:05;;;;;;;;;8.25;7.50;;;;;28.50;45.12;101322.38;5035972;28;45419;-64
2023/07/09 06:51:31;;;;;;;;;10.00;9.25;;;;;28.67;44.72;101350.94;5036217;28;45327;-64
2023/07/09 06:53:57;;;;;;;;;7.25;7.25;;;;;28.70;45.15;101361.50;5036611;28;46100;-64
2023/07/09 06:56:23;;;;;;;;;9.25;7.25;;;;;28.46;44.79;101328.91;5036786;28;45482;-65
2023/07/09 06:58:49;;;;;;;;;9.50;9.50;;;;;28.67;45.06;101367.09;5037276;28;45485;-63
2023/07/09 07:01:15;;;;;;;;;9.00;9.00;;;;;28.72;44.77;101354.19;5037881;28;45503;-64
2023/07/09 07:03:41;;;;;;;;;8.25;8.00;;;;;28.51;45.19;101302.53;5020239;28;45273;-64
2023/07/09 07:06:11;;;;;;;;;11.50;7.75;;;;;28.81;44.68;101350.91;5035959;28;46071;-64
2023/07/09 07:08:36;;;;;;;;;7.80;7.00;;;;;28.89;44.18;101336.91;5036136;28;45373;-64
2023/07/09 07:11:05;;;;;;;;;13.00;11.00;;;;;28.96;44.38;101340.94;5018092;28;45471;-63
2023/07/09 07:13:34;;;;;;;;;7.75;7.75;;;;;29.07;44.53;101340.25;5038217;28;45674;-64
2023/07/09 07:16:02;;;;;;;;;9.50;8.00;;;;;29.14;44.11;101323.56;5021285;28;47110;-64
2023/07/09 07:18:28;;;;;;;;;7.20;7.20;;;;;28.81;44.20;101270.03;5039302;28;45408;-64
2023/07/09 07:20:53;;;;;;;;;7.50;7.50;;;;;29.08;43.66;101313.19;5021397;28;45645;-63
2023/07/09 07:23:19;;;;;;;;;8.50;8.00;;;;;29.35;43.75;101350.94;5039813;28;45392;-63
2023/07/09 07:25:46;;;;;;;;;9.00;7.50;;;;;29.49;43.09;101341.88;5039462;28;45416;-64
2023/07/09 07:28:12;;;;;;;;;8.80;8.80;;;;;29.63;43.29;101348.19;5039568;28;45356;-64
2023/07/09 07:30:39;;;;;;;;;9.00;9.00;;;;;29.57;43.47;101347.66;5039645;28;45422;-64
2023/07/09 07:33:04;;;;;;;;;8.50;8.50;;;;;29.67;42.93;101368.66;5039447;28;45540;-63
2023/07/09 07:35:30;;;;;;;;;8.50;8.00;;;;;29.60;42.76;101381.66;5021221;28;46429;-63
2023/07/09 07:37:56;;;;;;;;;10.50;7.75;;;;;29.48;43.36;101383.34;5038902;28;45490;-63
2023/07/09 07:40:22;;;;;;;;;8.25;8.25;;;;;29.34;43.24;101383.41;5039434;28;45400;-64
2023/07/09 07:42:52;;;;;;;;;9.25;9.25;;;;;29.07;43.73;101348.34;5039719;28;45466;-66
2023/07/09 07:45:17;;;;;;;;;7.00;7.00;;;;;29.09;43.31;101370.69;5039456;28;45438;-65
2023/07/09 07:47:43;;;;;;;;;7.00;7.00;;;;;28.72;43.97;101335.31;5020987;28;45432;-63
2023/07/09 07:50:09;;;;;;;;;8.75;8.75;;;;;28.87;43.44;101407.09;5039060;28;45461;-63
2023/07/09 07:52:37;;;;;;;;;6.25;6.25;;;;;28.83;43.90;101434.34;5039322;28;45512;-65
2023/07/09 07:55:06;;;;;;;;;8.75;8.00;;;;;28.68;44.12;101441.59;5038845;28;46099;-64
2023/07/09 07:57:32;;;;;;;;;8.20;7.00;;;;;28.62;44.77;101448.25;5038777;28;45526;-64
2023/07/09 07:59:58;;;;;;;;;10.50;8.00;;;;;28.56;44.51;101448.63;5039132;28;45396;-65
2023/07/09 08:02:25;;;;;;;;;9.50;9.00;;;;;28.46;44.82;101442.94;5039854;28;45458;-64
2023/07/09 08:04:54;;;;;;;;;11.25;10.00;;;;;28.44;45.28;101455.59;5038726;28;46770;-65
2023/07/09 08:07:20;;;;;;;;;10.50;8.00;;;;;28.40;45.45;101443.28;5039066;28;45397;-66
2023/07/09 08:09:47;;;;;;;;;11.25;10.00;;;;;28.31;45.87;101423.19;5038815;28;45324;-64
2023/07/09 08:12:14;;;;;;;;;12.25;11.75;;;;;28.25;46.12;101398.44;5020876;28;45522;-64
2023/07/09 08:14:41;;;;;;;;;11.25;10.00;;;;;28.19;46.56;101394.31;5021440;28;47454;-64
2023/07/09 08:17:08;;;;;;;;;18.50;13.75;;;;;28.27;46.63;101410.00;5039474;28;45471;-64
2023/07/09 08:19:50;;;;;;;;;15.25;15.25;;;;;28.23;46.89;101414.69;5038669;28;45384;-65
2023/07/09 08:22:16;;;;;;;;;19.50;15.25;;;;;28.18;47.07;101392.56;5038517;28;45415;-64
2023/07/09 08:24:42;;;;;;;;;17.00;14.25;;;;;28.05;46.93;101368.22;5038713;28;45331;-63
2023/07/09 08:27:09;;;;;;;;;11.00;11.00;;;;;28.12;46.99;101392.97;5020479;28;45409;-64
2023/07/09 08:29:39;;;;;;;;;16.00;12.50;;;;;28.12;47.43;101396.50;5038717;28;45237;-64
2023/07/09 08:32:06;;;;;;;;;10.25;10.25;;;;;28.13;48.00;101411.69;5020459;28;45450;-64
2023/07/09 08:34:31;;;;;;;;;11.00;11.00;;;;;28.13;47.48;101409.00;5020274;28;46658;-64
2023/07/09 08:36:57;;;;;;;;;10.75;10.75;;;;;28.11;47.62;101392.06;5038897;28;45570;-65
2023/07/09 08:39:23;;;;;;;;;10.25;8.75;;;;;28.08;47.71;101399.47;5039936;28;45438;-64
2023/07/09 08:41:58;;;;;;;;;9.75;9.25;;;;;27.96;47.21;101414.56;5038604;28;45532;-65
2023/07/09 08:44:47;;;;;;;;;12.50;9.25;;;;;28.04;47.54;101458.03;5038066;28;46625;-63
2023/07/09 08:47:37;;;;;;;;;11.25;11.00;;;;;27.91;47.14;101452.53;5038430;28;45450;-64
2023/07/09 08:50:26;;;;;;;;;13.00;11.75;;;;;28.01;47.66;101466.31;5038323;28;45362;-65
2023/07/09 08:52:55;;;;;;;;;10.50;10.50;;;;;27.58;47.87;101389.91;5038260;28;45441;-64
2023/07/09 08:55:26;;;;;;;;;11.25;10.00;;;;;27.55;47.86;101399.03;5038209;28;45416;-63
2023/07/09 08:57:59;;;;;;;;;12.25;9.50;;;;;28.00;47.50;101480.72;5020087;28;45272;-66
2023/07/09 09:01:00;;;;;;;;;13.25;12.25;;;;;27.83;48.21;101478.16;5037929;28;45412;-65
2023/07/09 09:03:41;;;;;;;;;11.00;9.25;;;;;27.82;48.49;101500.63;5037323;28;45554;-65
2023/07/09 09:06:25;;;;;;;;;12.75;11.00;;;;;27.72;48.47;101486.84;5036310;28;47008;-63
2023/07/09 09:09:35;;;;;;;;;10.50;10.50;;;;;27.84;48.53;101505.00;5037907;28;45473;-66
2023/07/09 09:12:19;;;;;;;;;10.25;10.25;;;;;27.83;48.28;101480.84;5003101;28;45301;-64
2023/07/09 09:15:00;;;;;;;;;9.50;8.50;;;;;27.76;48.64;101464.16;5037950;28;45426;-64
2023/07/09 09:17:29;;;;;;;;;15.00;11.00;;;;;27.78;49.11;101462.25;5037271;28;45522;-64
2023/07/09 09:19:59;;;;;;;;;12.50;11.50;;;;;27.69;49.26;101458.28;5038111;28;45295;-64
2023/07/09 09:22:47;;;;;;;;;13.50;13.50;;;;;27.57;49.01;101445.53;5038108;28;45268;-66
2023/07/09 09:25:15;;;;;;;;;12.75;11.75;;;;;27.55;48.29;101446.56;5037990;28;45336;-65
2023/07/09 09:27:42;;;;;;;;;15.00;13.25;;;;;27.34;48.84;101430.72;5037009;28;45506;-66
2023/07/09 09:30:17;;;;;;;;;12.00;10.00;;;;;27.26;49.63;101428.50;5036194;28;45487;-64
2023/07/09 09:32:47;;;;;;;;;11.50;9.25;;;;;27.19;49.63;101419.03;5037497;28;45350;-65
2023/07/09 09:35:19;;;;;;;;;9.75;8.75;;;;;27.20;49.53;101403.75;5037792;28;45214;-66
2023/07/09 09:37:52;;;;;;;;;15.50;9.75;;;;;27.42;49.56;101439.22;5037629;28;45991;-64
2023/07/09 09:40:23;;;;;;;;;10.25;9.50;;;;;27.48;49.24;101448.78;5037185;28;45380;-65
2023/07/09 09:42:50;;;;;;;;;9.00;8.75;;;;;27.31;48.27;101405.81;5037476;28;45303;-65
2023/07/09 09:45:20;;;;;;;;;8.00;8.00;;;;;27.56;48.76;101445.63;5037701;28;45407;-64
2023/07/09 09:47:47;;;;;;;;;9.75;9.00;;;;;27.69;48.22;101484.31;5037685;28;45422;-64
2023/07/09 09:50:20;;;;;;;;;14.25;9.50;;;;;27.68;48.33;101485.28;5020676;28;45420;-63
2023/07/09 09:52:47;;;;;;;;;11.00;10.00;;;;;27.66;48.14;101476.41;5038516;28;45406;-64
2023/07/09 09:55:25;;;;;;;;;10.75;8.25;;;;;27.58;48.21;101466.09;5037506;28;45478;-64
2023/07/09 09:57:53;;;;;;;;;8.00;8.00;;;;;27.75;49.03;101491.16;5036944;28;45418;-67
2023/07/09 10:00:23;;;;;;;;;11.00;8.50;;;;;27.70;49.51;101495.00;5037135;28;45483;-63
2023/07/09 10:02:48;;;;;;;;;10.00;8.00;;;;;27.70;49.80;101492.31;5037040;28;45521;-63
2023/07/09 10:05:27;;;;;;;;;15.25;12.00;;;;;27.57;50.66;101493.94;5037373;28;45183;-63
2023/07/09 10:08:03;;;;;;;;;26.00;23.33;;;;;27.27;51.36;101501.97;5037185;28;46527;-65
2023/07/09 10:10:32;;;;;;;;;165.33;150.67;;;;;27.38;51.17;101528.25;5037132;28;45830;-65
2023/07/09 10:13:25;;;;;;;;;73.25;60.50;;;;;27.32;50.89;101507.09;5037360;28;45425;-63
2023/07/09 10:16:30;;;;;;;;;39.67;33.67;;;;;27.56;50.35;101491.38;5019089;28;45257;-65
2023/07/09 10:19:24;;;;;;;;;13.25;12.00;;;;;27.67;49.99;101443.19;5037507;28;45513;-64
2023/07/09 10:22:06;;;;;;;;;11.50;10.00;;;;;27.60;50.29;101393.38;5019103;28;45427;-63
2023/07/09 10:24:42;;;;;;;;;12.75;12.00;;;;;27.05;50.34;101290.75;5036919;28;45368;-64
2023/07/09 10:27:36;;;;;;;;;13.00;10.75;;;;;27.46;49.92;101397.72;5036970;28;45474;-63
2023/07/09 10:30:41;;;;;;;;;13.75;10.50;;;;;27.46;51.24;101416.56;5036402;28;45496;-64
2023/07/09 10:33:20;;;;;;;;;8.25;8.25;;;;;27.27;50.46;101371.03;5036979;28;45406;-63
2023/07/09 10:36:20;;;;;;;;;9.50;8.00;;;;;27.61;50.21;101416.63;5038112;28;46086;-64
2023/07/09 10:39:05;;;;;;;;;8.50;8.00;;;;;27.68;50.66;101426.06;5008066;28;45301;-67
2023/07/09 10:41:35;;;;;;;;;11.25;10.25;;;;;27.82;49.84;101453.03;5009060;28;46627;-63
2023/07/09 10:44:25;;;;;;;;;9.00;7.50;;;;;27.97;49.73;101456.66;5033954;28;45249;-64
2023/07/09 10:46:58;;;;;;;;;9.75;8.75;;;;;27.80;48.81;101406.50;5018766;28;45527;-63
2023/07/09 10:49:36;;;;;;;;;9.75;8.25;;;;;28.10;48.70;101443.34;5037082;28;45574;-66
2023/07/09 10:52:13;;;;;;;;;13.00;12.00;;;;;28.45;47.91;101470.81;5037737;28;45419;-63
2023/07/09 10:55:14;;;;;;;;;9.75;8.50;;;;;28.72;47.40;101465.56;5037549;28;45537;-65
2023/07/09 10:57:50;;;;;;;;;10.75;9.50;;;;;28.93;46.76;101455.25;5033458;28;45270;-63
2023/07/09 11:00:19;;;;;;;;;9.75;9.75;;;;;29.21;46.11;101466.09;5038094;28;45389;-64
2023/07/09 11:02:47;;;;;;;;;11.75;10.00;;;;;29.52;45.67;101475.75;5018890;28;46899;-64
2023/07/09 11:05:13;;;;;;;;;11.00;11.00;;;;;29.65;45.96;101457.78;5018734;28;45785;-65
2023/07/09 11:07:45;;;;;;;;;12.75;10.25;;;;;29.65;45.75;101457.78;5037753;28;46041;-64
2023/07/09 11:10:32;;;;;;;;;10.00;9.75;;;;;29.71;45.26;101459.22;5036793;28;45391;-66
2023/07/09 11:13:11;;;;;;;;;13.75;11.00;;;;;29.83;44.94;101439.53;5037819;28;46146;-65
2023/07/09 11:15:41;;;;;;;;;12.75;11.00;;;;;29.89;45.13;101428.28;5031060;28;45548;-65
2023/07/09 11:18:16;;;;;;;;;11.25;10.25;;;;;29.93;44.99;101429.81;5018298;28;45474;-64
2023/07/09 11:20:45;;;;;;;;;12.25;12.00;;;;;29.99;44.60;101421.31;4983076;28;45641;-66
2023/07/09 11:23:23;;;;;;;;;13.25;11.25;;;;;30.15;44.88;101422.91;4959771;28;45471;-66
2023/07/09 11:26:12;;;;;;;;;9.20;9.20;;;;;30.20;44.06;101416.22;4960406;28;45398;-65